createdAt,value
2023-01-22T00:00:11.621Z,0.00
2023-01-22T00:02:41.175Z,0.00
2023-01-22T00:05:08.531Z,0.00
2023-01-22T00:07:35.421Z,0.00
2023-01-22T00:10:02.244Z,-0.10
2023-01-22T00:12:29.484Z,-0.10
2023-01-22T00:14:56.377Z,-0.10
2023-01-22T00:17:23.482Z,-0.10
2023-01-22T00:19:50.341Z,-0.20
2023-01-22T00:22:17.268Z,-0.20
2023-01-22T00:24:44.270Z,-0.20
2023-01-22T00:27:11.276Z,-0.30
2023-01-22T00:29:38.226Z,-0.30
2023-01-22T00:32:05.388Z,-0.30
2023-01-22T00:34:33.257Z,-0.40
2023-01-22T00:37:00.284Z,-0.40
2023-01-22T00:39:27.307Z,-0.40
2023-01-22T00:41:54.252Z,-0.40
2023-01-22T00:44:21.134Z,-0.30
2023-01-22T00:46:48.151Z,-0.20
2023-01-22T00:49:15.119Z,-0.20
2023-01-22T00:51:42.157Z,-0.20
2023-01-22T00:54:09.250Z,-0.20
2023-01-22T00:56:36.174Z,-0.20
2023-01-22T00:59:10.134Z,-0.20
2023-01-22T01:01:39.961Z,-0.20
2023-01-22T01:04:06.929Z,-0.20
2023-01-22T01:06:33.833Z,-0.20
2023-01-22T01:09:01.747Z,-0.30
2023-01-22T01:11:29.724Z,-0.30
2023-01-22T01:13:57.022Z,-0.30
2023-01-22T01:16:29.834Z,-0.30
2023-01-22T01:18:59.127Z,-0.30
2023-01-22T01:21:28.954Z,-0.40
2023-01-22T01:23:59.405Z,-0.40
2023-01-22T01:26:26.473Z,-0.50
2023-01-22T01:28:55.812Z,-0.50
2023-01-22T01:31:23.836Z,-0.60
2023-01-22T01:33:50.811Z,-0.60
2023-01-22T01:36:40.478Z,-0.60
2023-01-22T01:39:09.850Z,-0.60
2023-01-22T01:41:36.762Z,-0.60
2023-01-22T01:44:23.568Z,-0.60
2023-01-22T01:46:57.862Z,-0.60
2023-01-22T01:49:33.644Z,-0.70
2023-01-22T01:52:01.929Z,-0.70
2023-01-22T01:54:29.243Z,-0.70
2023-01-22T01:57:06.247Z,-0.70
2023-01-22T01:59:33.657Z,-0.60
2023-01-22T02:02:01.432Z,-0.70
2023-01-22T02:04:28.689Z,-0.70
2023-01-22T02:06:55.573Z,-0.70
2023-01-22T02:09:22.503Z,-0.70
2023-01-22T02:11:50.084Z,-0.80
2023-01-22T02:14:29.664Z,-0.80
2023-01-22T02:17:01.231Z,-0.70
2023-01-22T02:19:28.148Z,-0.70
2023-01-22T02:21:54.991Z,-0.80
2023-01-22T02:24:21.880Z,-0.80
2023-01-22T02:26:48.818Z,-0.80
2023-01-22T02:29:19.792Z,-0.80
2023-01-22T02:31:47.699Z,-0.80
2023-01-22T02:34:14.683Z,-0.80
2023-01-22T02:36:45.376Z,-0.80
2023-01-22T02:39:12.319Z,-0.80
2023-01-22T02:41:39.382Z,-0.90
2023-01-22T02:44:07.508Z,-0.90
2023-01-22T02:46:34.630Z,-0.80
2023-01-22T02:49:01.558Z,-0.80
2023-01-22T02:51:30.280Z,-0.80
2023-01-22T02:53:57.801Z,-0.90
2023-01-22T02:56:24.680Z,-1.00
2023-01-22T02:58:52.065Z,-1.00
2023-01-22T03:01:24.207Z,-0.90
2023-01-22T03:03:57.841Z,-0.90
2023-01-22T03:06:26.566Z,-1.00
2023-01-22T03:08:55.269Z,-1.00
2023-01-22T03:11:22.879Z,-1.10
2023-01-22T03:14:08.319Z,-1.20
2023-01-22T03:16:53.792Z,-1.20
2023-01-22T03:19:39.484Z,-1.20
2023-01-22T03:22:12.339Z,-1.20
2023-01-22T03:24:39.239Z,-1.10
2023-01-22T03:27:06.590Z,-1.10
2023-01-22T03:29:38.396Z,-1.10
2023-01-22T03:32:07.377Z,-1.10
2023-01-22T03:34:36.505Z,-1.10
2023-01-22T03:37:06.100Z,-1.10
2023-01-22T03:39:33.096Z,-1.10
2023-01-22T03:42:02.505Z,-1.10
2023-01-22T03:44:30.003Z,-1.20
2023-01-22T03:46:57.392Z,-1.20
2023-01-22T03:49:24.663Z,-1.20
2023-01-22T03:51:53.271Z,-1.10
2023-01-22T03:54:20.188Z,-1.10
2023-01-22T03:56:48.348Z,-1.20
2023-01-22T03:59:27.608Z,-1.10
2023-01-22T04:01:54.519Z,-1.10
2023-01-22T04:04:22.074Z,-1.10
2023-01-22T04:06:50.215Z,-1.10
2023-01-22T04:09:17.117Z,-1.20
2023-01-22T04:11:47.957Z,-1.10
2023-01-22T04:14:16.373Z,-1.20
2023-01-22T04:17:01.848Z,-1.20
2023-01-22T04:19:28.747Z,-1.10
2023-01-22T04:22:24.854Z,-1.10
2023-01-22T04:24:51.702Z,-1.10
2023-01-22T04:27:18.641Z,-1.10
2023-01-22T04:29:47.709Z,-1.10
2023-01-22T04:32:14.777Z,-1.10
2023-01-22T04:34:58.002Z,-1.20
2023-01-22T04:37:34.869Z,-1.30
2023-01-22T04:40:02.481Z,-1.30
2023-01-22T04:42:29.588Z,-1.30
2023-01-22T04:44:56.489Z,-1.40
2023-01-22T04:47:23.626Z,-1.50
2023-01-22T04:49:50.568Z,-1.50
2023-01-22T04:52:17.930Z,-1.40
2023-01-22T04:54:44.808Z,-1.40
2023-01-22T04:57:11.893Z,-1.40
2023-01-22T04:59:39.178Z,-1.40
2023-01-22T05:02:06.497Z,-1.40
2023-01-22T05:04:33.361Z,-1.40
2023-01-22T05:07:00.296Z,-1.30
2023-01-22T05:09:27.213Z,-1.30
2023-01-22T05:11:58.482Z,-1.30
2023-01-22T05:14:26.409Z,-1.40
2023-01-22T05:16:53.524Z,-1.40
2023-01-22T05:19:20.503Z,-1.40
2023-01-22T05:21:48.252Z,-1.40
2023-01-22T05:24:18.541Z,-1.40
2023-01-22T05:26:45.741Z,-1.40
2023-01-22T05:29:16.341Z,-1.40
2023-01-22T05:32:02.036Z,-1.50
2023-01-22T05:34:32.692Z,-1.50
2023-01-22T05:37:00.144Z,-1.50
2023-01-22T05:39:29.350Z,-1.50
2023-01-22T05:41:58.515Z,-1.50
2023-01-22T05:44:26.228Z,-1.60
2023-01-22T05:46:54.923Z,-1.60
2023-01-22T05:49:47.984Z,-1.60
2023-01-22T05:52:16.253Z,-1.60
2023-01-22T05:54:44.763Z,-1.60
2023-01-22T05:57:11.757Z,-1.60
2023-01-22T05:59:39.326Z,-1.70
2023-01-22T06:02:08.250Z,-1.70
2023-01-22T06:04:40.276Z,-1.70
2023-01-22T06:07:17.606Z,-1.70
2023-01-22T06:09:45.450Z,-1.70
2023-01-22T06:12:12.367Z,-1.70
2023-01-22T06:14:39.913Z,-1.70
2023-01-22T06:17:07.211Z,-1.70
2023-01-22T06:19:37.108Z,-1.70
2023-01-22T06:22:05.000Z,-1.70
2023-01-22T06:24:39.688Z,-1.70
2023-01-22T06:27:08.271Z,-1.60
2023-01-22T06:29:41.096Z,-1.60
2023-01-22T06:32:08.223Z,-1.60
2023-01-22T06:34:35.149Z,-1.60
2023-01-22T06:37:03.883Z,-1.60
2023-01-22T06:39:33.598Z,-1.50
2023-01-22T06:42:07.292Z,-1.60
2023-01-22T06:44:34.252Z,-1.60
2023-01-22T06:47:01.098Z,-1.70
2023-01-22T06:49:30.196Z,-1.70
2023-01-22T06:51:57.138Z,-1.70
2023-01-22T06:54:24.045Z,-1.70
2023-01-22T06:56:51.084Z,-1.70
2023-01-22T06:59:20.888Z,-1.70
2023-01-22T07:01:47.795Z,-1.70
2023-01-22T07:04:14.810Z,-1.70
2023-01-22T07:06:41.722Z,-1.80
2023-01-22T07:09:08.502Z,-1.90
2023-01-22T07:11:35.519Z,-1.90
2023-01-22T07:14:02.351Z,-1.90
2023-01-22T07:16:29.236Z,-1.90
2023-01-22T07:18:56.087Z,-1.90
2023-01-22T07:21:22.950Z,-1.80
2023-01-22T07:23:49.759Z,-1.80
2023-01-22T07:26:17.804Z,-1.70
2023-01-22T07:28:45.162Z,-1.70
2023-01-22T07:31:14.553Z,-1.70
2023-01-22T07:33:41.990Z,-1.70
2023-01-22T07:36:08.957Z,-1.70
2023-01-22T07:38:35.861Z,-1.80
2023-01-22T07:41:14.120Z,-1.80
2023-01-22T07:43:49.248Z,-1.80
2023-01-22T07:46:16.341Z,-1.80
2023-01-22T07:48:45.633Z,-1.90
2023-01-22T07:51:12.865Z,-1.90
2023-01-22T07:53:40.186Z,-1.90
2023-01-22T07:56:07.495Z,-1.90
2023-01-22T07:58:34.346Z,-1.90
2023-01-22T08:01:04.845Z,-1.90
2023-01-22T08:03:34.010Z,-1.90
2023-01-22T08:06:01.099Z,-1.90
2023-01-22T08:08:28.064Z,-2.00
2023-01-22T08:10:58.559Z,-2.00
2023-01-22T08:13:25.480Z,-1.90
2023-01-22T08:15:52.358Z,-1.90
2023-01-22T08:18:20.919Z,-1.80
2023-01-22T08:20:49.680Z,-1.90
2023-01-22T08:23:16.564Z,-1.90
2023-01-22T08:25:43.470Z,-1.90
2023-01-22T08:28:10.273Z,-1.80
2023-01-22T08:30:45.329Z,-1.70
2023-01-22T08:33:12.823Z,-1.70
2023-01-22T08:35:39.987Z,-1.60
2023-01-22T08:38:06.872Z,-1.70
2023-01-22T08:40:33.777Z,-1.70
2023-01-22T08:43:00.726Z,-1.70
2023-01-22T08:45:27.697Z,-1.70
2023-01-22T08:47:59.759Z,-1.60
2023-01-22T08:50:27.369Z,-1.50
2023-01-22T08:52:56.813Z,-1.50
2023-01-22T08:55:24.195Z,-1.50
2023-01-22T08:57:55.127Z,-1.50
2023-01-22T09:00:22.782Z,-1.40
2023-01-22T09:02:49.750Z,-1.40
2023-01-22T09:05:16.682Z,-1.40
2023-01-22T09:07:43.516Z,-1.40
2023-01-22T09:10:12.328Z,-1.30
2023-01-22T09:12:42.277Z,-1.30
2023-01-22T09:15:09.458Z,-1.30
2023-01-22T09:17:36.262Z,-1.20
2023-01-22T09:20:03.302Z,-1.10
2023-01-22T09:22:30.125Z,-1.00
2023-01-22T09:24:59.666Z,-0.90
2023-01-22T09:27:26.499Z,-0.90
2023-01-22T09:29:53.328Z,-0.90
2023-01-22T09:32:20.187Z,-0.80
2023-01-22T09:34:49.651Z,-0.80
2023-01-22T09:37:16.754Z,-0.80
2023-01-22T09:39:43.739Z,-0.70
2023-01-22T09:42:17.679Z,-0.70
2023-01-22T09:44:45.930Z,-0.70
2023-01-22T09:47:14.282Z,-0.60
2023-01-22T09:49:58.677Z,-0.50
2023-01-22T09:52:28.744Z,-0.50
2023-01-22T09:54:56.250Z,-0.40
2023-01-22T09:57:31.612Z,-0.40
2023-01-22T09:59:59.085Z,-0.40
2023-01-22T10:02:32.281Z,-0.30
2023-01-22T10:05:17.251Z,-0.30
2023-01-22T10:07:52.975Z,-0.30
2023-01-22T10:10:24.949Z,-0.20
2023-01-22T10:13:31.085Z,-0.20
2023-01-22T10:15:58.148Z,-0.20
2023-01-22T10:18:42.128Z,-0.20
2023-01-22T10:21:20.338Z,-0.10
2023-01-22T10:23:48.277Z,0.00
2023-01-22T10:26:29.986Z,0.10
2023-01-22T10:28:58.027Z,0.10
2023-01-22T10:31:38.127Z,0.20
2023-01-22T10:34:14.583Z,0.30
2023-01-22T10:36:41.638Z,0.30
2023-01-22T10:39:13.785Z,0.30
2023-01-22T10:41:41.648Z,0.30
2023-01-22T10:44:17.136Z,0.40
2023-01-22T10:46:44.243Z,0.40
2023-01-22T10:49:19.120Z,0.40
2023-01-22T10:51:57.027Z,0.50
2023-01-22T10:54:27.042Z,0.60
2023-01-22T10:57:02.608Z,0.60
2023-01-22T10:59:29.758Z,0.60
2023-01-22T11:01:58.535Z,0.70
2023-01-22T11:04:30.815Z,0.80
2023-01-22T11:07:06.422Z,0.90
2023-01-22T11:09:53.392Z,0.90
2023-01-22T11:12:26.321Z,1.00
2023-01-22T11:15:02.298Z,1.10
2023-01-22T11:17:38.872Z,1.10
2023-01-22T11:20:33.415Z,1.10
2023-01-22T11:23:13.791Z,1.20
2023-01-22T11:25:46.091Z,1.20
2023-01-22T11:28:20.981Z,1.30
2023-01-22T11:30:55.316Z,1.30
2023-01-22T11:33:48.282Z,1.40
2023-01-22T11:36:38.410Z,1.40
2023-01-22T11:39:16.749Z,1.50
2023-01-22T11:42:02.522Z,1.60
2023-01-22T11:45:04.072Z,1.60
2023-01-22T11:47:46.015Z,1.70
2023-01-22T11:50:23.527Z,1.80
2023-01-22T11:53:10.803Z,1.80
2023-01-22T11:55:52.093Z,1.90
2023-01-22T11:58:59.927Z,2.00
2023-01-22T12:02:05.061Z,2.10
2023-01-22T12:05:08.354Z,2.10
2023-01-22T12:08:04.201Z,2.20
2023-01-22T12:11:01.963Z,2.30
2023-01-22T12:13:54.392Z,2.30
2023-01-22T12:16:32.826Z,2.30
2023-01-22T12:19:27.695Z,2.40
2023-01-22T12:22:11.821Z,2.50
2023-01-22T12:24:54.967Z,2.50
2023-01-22T12:27:57.027Z,2.60
2023-01-22T12:30:48.115Z,2.60
2023-01-22T12:33:17.522Z,2.70
2023-01-22T12:35:44.572Z,2.70
2023-01-22T12:38:12.474Z,2.70
2023-01-22T12:41:11.577Z,2.80
2023-01-22T12:44:03.501Z,2.90
2023-01-22T12:46:44.957Z,2.90
2023-01-22T12:49:16.279Z,3.00
2023-01-22T12:51:45.735Z,3.00
2023-01-22T12:54:32.468Z,3.00
2023-01-22T12:57:14.546Z,3.10
2023-01-22T12:59:46.836Z,3.20
2023-01-22T13:02:19.564Z,3.20
2023-01-22T13:04:46.727Z,3.20
2023-01-22T13:07:28.999Z,3.30
2023-01-22T13:10:06.163Z,3.30
2023-01-22T13:13:16.786Z,3.30
2023-01-22T13:15:43.834Z,3.30
2023-01-22T13:18:18.315Z,3.30
2023-01-22T13:21:07.095Z,3.30
2023-01-22T13:23:44.854Z,3.30
2023-01-22T13:26:22.579Z,3.30
2023-01-22T13:29:01.303Z,3.30
2023-01-22T13:31:28.510Z,3.30
2023-01-22T13:33:59.596Z,3.30
2023-01-22T13:36:27.295Z,3.30
2023-01-22T13:38:56.304Z,3.30
2023-01-22T13:41:41.379Z,3.30
2023-01-22T13:44:17.476Z,3.40
2023-01-22T13:46:44.414Z,3.40
2023-01-22T13:49:18.982Z,3.40
2023-01-22T13:51:45.927Z,3.40
2023-01-22T13:54:43.033Z,3.50
2023-01-22T13:57:17.502Z,3.50
2023-01-22T13:59:54.900Z,3.40
2023-01-22T14:02:27.670Z,3.40
2023-01-22T14:04:54.629Z,3.50
2023-01-22T14:07:25.157Z,3.50
2023-01-22T14:09:52.463Z,3.50
2023-01-22T14:12:26.858Z,3.60
2023-01-22T14:14:54.269Z,3.60
2023-01-22T14:17:28.754Z,3.70
2023-01-22T14:19:56.808Z,3.60
2023-01-22T14:22:24.166Z,3.60
2023-01-22T14:24:54.754Z,3.60
2023-01-22T14:27:29.728Z,3.60
2023-01-22T14:29:56.578Z,3.60
2023-01-22T14:32:23.807Z,3.70
2023-01-22T14:34:50.723Z,3.70
2023-01-22T14:37:17.854Z,3.60
2023-01-22T14:39:44.878Z,3.60
2023-01-22T14:42:11.738Z,3.60
2023-01-22T14:44:38.822Z,3.70
2023-01-22T14:47:05.844Z,3.70
2023-01-22T14:49:32.934Z,3.70
2023-01-22T14:51:59.830Z,3.70
2023-01-22T14:54:26.774Z,3.70
2023-01-22T14:56:54.389Z,3.70
2023-01-22T14:59:21.318Z,3.70
2023-01-22T15:01:48.359Z,3.60
2023-01-22T15:04:15.524Z,3.60
2023-01-22T15:06:42.433Z,3.60
2023-01-22T15:09:11.041Z,3.60
2023-01-22T15:11:37.889Z,3.50
2023-01-22T15:14:05.661Z,3.50
2023-01-22T15:16:32.961Z,3.50
2023-01-22T15:18:59.854Z,3.50
2023-01-22T15:21:26.855Z,3.50
2023-01-22T15:23:53.791Z,3.40
2023-01-22T15:26:25.826Z,3.50
2023-01-22T15:28:53.551Z,3.50
2023-01-22T15:31:20.438Z,3.40
2023-01-22T15:33:47.408Z,3.40
2023-01-22T15:36:14.220Z,3.40
2023-01-22T15:38:41.107Z,3.40
2023-01-22T15:41:26.809Z,3.40
2023-01-22T15:43:54.773Z,3.40
2023-01-22T15:46:23.356Z,3.30
2023-01-22T15:48:50.535Z,3.30
2023-01-22T15:51:17.717Z,3.30
2023-01-22T15:53:51.739Z,3.30
2023-01-22T15:56:19.330Z,3.30
2023-01-22T15:58:46.383Z,3.20
2023-01-22T16:01:13.408Z,3.20
2023-01-22T16:03:40.294Z,3.10
2023-01-22T16:06:23.906Z,3.10
2023-01-22T16:08:51.652Z,3.10
2023-01-22T16:11:18.746Z,3.10
2023-01-22T16:13:45.590Z,3.10
2023-01-22T16:16:20.768Z,3.00
2023-01-22T16:18:50.373Z,3.00
2023-01-22T16:21:17.641Z,2.90
2023-01-22T16:23:45.885Z,3.00
2023-01-22T16:26:18.774Z,2.90
2023-01-22T16:28:46.743Z,2.90
2023-01-22T16:31:15.985Z,2.90
2023-01-22T16:33:45.191Z,2.90
2023-01-22T16:36:16.759Z,2.80
2023-01-22T16:38:43.690Z,2.80
2023-01-22T16:41:24.164Z,2.70
2023-01-22T16:44:08.391Z,2.60
2023-01-22T16:46:37.577Z,2.60
2023-01-22T16:49:15.688Z,2.50
2023-01-22T16:51:45.030Z,2.50
2023-01-22T16:54:24.112Z,2.40
2023-01-22T16:56:51.086Z,2.40
2023-01-22T16:59:17.952Z,2.50
2023-01-22T17:01:46.175Z,2.50
2023-01-22T17:04:13.146Z,2.50
2023-01-22T17:07:04.501Z,2.50
2023-01-22T17:09:33.083Z,2.40
2023-01-22T17:12:01.493Z,2.40
2023-01-22T17:14:29.787Z,2.40
2023-01-22T17:16:57.707Z,2.40
2023-01-22T17:19:24.743Z,2.30
2023-01-22T17:21:55.366Z,2.30
2023-01-22T17:24:22.405Z,2.20
2023-01-22T17:26:52.241Z,2.10
2023-01-22T17:29:19.642Z,2.10
2023-01-22T17:31:47.292Z,2.00
2023-01-22T17:34:14.550Z,2.00
2023-01-22T17:36:41.691Z,1.90
2023-01-22T17:39:14.875Z,1.80
2023-01-22T17:41:41.859Z,1.80
2023-01-22T17:44:08.801Z,1.80
2023-01-22T17:46:35.833Z,1.70
2023-01-22T17:49:04.764Z,1.70
2023-01-22T17:51:33.164Z,1.60
2023-01-22T17:54:01.989Z,1.60
2023-01-22T17:56:37.495Z,1.40
2023-01-22T17:59:06.037Z,1.40
2023-01-22T18:01:34.013Z,1.40
2023-01-22T18:04:02.820Z,1.30
2023-01-22T18:06:32.406Z,1.20
2023-01-22T18:09:00.584Z,1.20
2023-01-22T18:11:28.546Z,1.10
2023-01-22T18:13:59.740Z,1.00
2023-01-22T18:16:28.191Z,1.00
2023-01-22T18:18:55.297Z,1.00
2023-01-22T18:21:23.297Z,1.00
2023-01-22T18:23:50.157Z,0.90
2023-01-22T18:26:22.572Z,0.90
2023-01-22T18:28:50.400Z,0.90
2023-01-22T18:31:17.985Z,0.90
2023-01-22T18:33:46.210Z,0.90
2023-01-22T18:36:14.592Z,0.80
2023-01-22T18:38:41.591Z,0.80
2023-01-22T18:41:10.505Z,0.80
2023-01-22T18:43:38.179Z,0.80
2023-01-22T18:46:06.685Z,0.80
2023-01-22T18:48:34.138Z,0.70
2023-01-22T18:51:01.186Z,0.70
2023-01-22T18:53:30.961Z,0.60
2023-01-22T18:56:01.941Z,0.50
2023-01-22T18:58:34.090Z,0.50
2023-01-22T19:01:12.922Z,0.50
2023-01-22T19:03:44.650Z,0.40
2023-01-22T19:06:14.325Z,0.30
2023-01-22T19:08:45.981Z,0.30
2023-01-22T19:11:13.102Z,0.30
2023-01-22T19:13:40.856Z,0.20
2023-01-22T19:16:15.832Z,0.20
2023-01-22T19:18:44.038Z,0.10
2023-01-22T19:21:19.203Z,0.10
2023-01-22T19:23:47.187Z,0.10
2023-01-22T19:26:46.571Z,0.10
2023-01-22T19:29:15.010Z,0.10
2023-01-22T19:31:45.880Z,0.20
2023-01-22T19:34:13.964Z,0.20
2023-01-22T19:36:41.019Z,0.30
2023-01-22T19:39:12.067Z,0.20
2023-01-22T19:41:40.062Z,0.20
2023-01-22T19:44:07.113Z,0.20
2023-01-22T19:46:34.894Z,0.20
2023-01-22T19:49:01.791Z,0.20
2023-01-22T19:51:30.663Z,0.20
2023-01-22T19:53:59.472Z,0.20
2023-01-22T19:56:28.903Z,0.10
2023-01-22T19:59:00.419Z,0.10
2023-01-22T20:01:27.633Z,0.10
2023-01-22T20:03:55.650Z,0.10
2023-01-22T20:06:23.383Z,0.00
2023-01-22T20:08:50.348Z,0.00
2023-01-22T20:11:17.324Z,0.00
2023-01-22T20:13:44.255Z,-0.10
2023-01-22T20:16:22.022Z,-0.10
2023-01-22T20:18:49.209Z,-0.10
2023-01-22T20:21:17.057Z,-0.20
2023-01-22T20:23:44.629Z,-0.20
2023-01-22T20:26:11.841Z,-0.20
2023-01-22T20:28:39.680Z,-0.30
2023-01-22T20:31:08.301Z,-0.30
2023-01-22T20:33:35.275Z,-0.30
2023-01-22T20:36:05.926Z,-0.20
2023-01-22T20:38:32.847Z,-0.30
2023-01-22T20:41:01.856Z,-0.30
2023-01-22T20:43:28.979Z,-0.30
2023-01-22T20:46:00.699Z,-0.30
2023-01-22T20:48:28.740Z,-0.40
2023-01-22T20:50:55.821Z,-0.40
2023-01-22T20:53:23.288Z,-0.50
2023-01-22T20:56:01.230Z,-0.50
2023-01-22T20:58:28.479Z,-0.50
2023-01-22T21:00:55.421Z,-0.50
2023-01-22T21:03:24.177Z,-0.50
2023-01-22T21:05:51.076Z,-0.50
2023-01-22T21:08:17.985Z,-0.40
2023-01-22T21:10:57.945Z,-0.50
2023-01-22T21:13:24.943Z,-0.40
2023-01-22T21:15:52.123Z,-0.50
2023-01-22T21:18:19.543Z,-0.50
2023-01-22T21:20:46.499Z,-0.50
2023-01-22T21:23:13.564Z,-0.50
2023-01-22T21:25:40.567Z,-0.50
2023-01-22T21:28:07.539Z,-0.50
2023-01-22T21:30:34.854Z,-0.50
2023-01-22T21:33:01.747Z,-0.60
2023-01-22T21:35:28.683Z,-0.70
2023-01-22T21:37:55.913Z,-0.70
2023-01-22T21:40:22.844Z,-0.80
2023-01-22T21:43:08.254Z,-0.80
2023-01-22T21:45:53.672Z,-0.80
2023-01-22T21:48:20.780Z,-0.90
2023-01-22T21:50:47.836Z,-0.80
2023-01-22T21:53:14.703Z,-0.80
2023-01-22T21:55:52.623Z,-0.90
2023-01-22T21:58:20.369Z,-1.00
2023-01-22T22:00:47.410Z,-1.10
2023-01-22T22:03:16.049Z,-1.10
2023-01-22T22:05:43.361Z,-1.00
2023-01-22T22:08:10.281Z,-1.00
2023-01-22T22:10:37.204Z,-1.00
2023-01-22T22:13:04.117Z,-0.90
2023-01-22T22:15:31.003Z,-0.90
2023-01-22T22:17:57.858Z,-0.90
2023-01-22T22:20:24.785Z,-0.90
2023-01-22T22:22:51.709Z,-0.90
2023-01-22T22:25:18.660Z,-1.00
2023-01-22T22:27:45.624Z,-1.00
2023-01-22T22:30:13.063Z,-1.00
2023-01-22T22:32:39.958Z,-1.10
2023-01-22T22:35:07.074Z,-1.20
2023-01-22T22:37:33.920Z,-1.20
2023-01-22T22:40:00.893Z,-1.20
2023-01-22T22:42:28.065Z,-1.20
2023-01-22T22:44:54.960Z,-1.30
2023-01-22T22:47:21.811Z,-1.30
2023-01-22T22:49:48.656Z,-1.30
2023-01-22T22:52:15.570Z,-1.30
2023-01-22T22:54:42.424Z,-1.30
2023-01-22T22:57:09.363Z,-1.30
2023-01-22T22:59:36.249Z,-1.40
2023-01-22T23:02:06.043Z,-1.40
2023-01-22T23:04:33.719Z,-1.40
2023-01-22T23:07:00.727Z,-1.40
2023-01-22T23:09:27.988Z,-1.50
2023-01-22T23:11:56.145Z,-1.50
2023-01-22T23:14:23.276Z,-1.60
2023-01-22T23:16:50.305Z,-1.60
2023-01-22T23:19:21.989Z,-1.60
2023-01-22T23:21:50.347Z,-1.60
2023-01-22T23:24:17.236Z,-1.50
2023-01-22T23:26:44.879Z,-1.60
2023-01-22T23:29:13.481Z,-1.60
2023-01-22T23:31:40.740Z,-1.60
2023-01-22T23:34:10.109Z,-1.60
2023-01-22T23:36:37.151Z,-1.60
2023-01-22T23:39:04.309Z,-1.50
2023-01-22T23:41:31.217Z,-1.50
2023-01-22T23:43:58.099Z,-1.50
2023-01-22T23:46:27.115Z,-1.50
2023-01-22T23:48:54.614Z,-1.60
2023-01-22T23:51:21.736Z,-1.50
2023-01-22T23:53:52.771Z,-1.50
2023-01-22T23:56:22.961Z,-1.60
2023-01-22T23:58:49.881Z,-1.60
